createdAt,value
2022-11-19T00:01:26.529Z,44.25
2022-11-19T00:03:54.639Z,49.17
2022-11-19T00:06:24.600Z,46.53
2022-11-19T00:08:52.818Z,36.75
2022-11-19T00:11:44.231Z,33.83
2022-11-19T00:14:13.651Z,34.55
2022-11-19T00:16:41.878Z,35.25
2022-11-19T00:19:10.913Z,35.75
2022-11-19T00:21:38.412Z,33.17
2022-11-19T00:24:06.254Z,31.10
2022-11-19T00:26:33.699Z,39.10
2022-11-19T00:29:01.280Z,31.95
2022-11-19T00:31:28.939Z,29.85
2022-11-19T00:33:56.488Z,36.75
2022-11-19T00:36:24.185Z,44.70
2022-11-19T00:38:51.696Z,37.03
2022-11-19T00:41:19.210Z,46.28
2022-11-19T00:43:47.007Z,33.35
2022-11-19T00:46:14.618Z,29.65
2022-11-19T00:48:42.908Z,24.40
2022-11-19T00:51:10.871Z,26.83
2022-11-19T00:53:38.717Z,46.28
2022-11-19T00:56:09.341Z,40.53
2022-11-19T00:58:37.801Z,34.95
2022-11-19T01:01:06.016Z,30.00
2022-11-19T01:03:34.144Z,37.47
2022-11-19T01:06:02.184Z,33.88
2022-11-19T01:08:29.757Z,34.40
2022-11-19T01:11:07.552Z,39.95
2022-11-19T01:13:36.093Z,42.53
2022-11-19T01:16:09.683Z,37.38
2022-11-19T01:18:39.165Z,35.92
2022-11-19T01:21:08.003Z,31.67
2022-11-19T01:23:35.527Z,26.75
2022-11-19T01:26:03.644Z,25.83
2022-11-19T01:28:31.344Z,26.77
2022-11-19T01:30:59.164Z,29.90
2022-11-19T01:33:26.886Z,39.20
2022-11-19T01:36:06.211Z,35.13
2022-11-19T01:38:34.491Z,36.20
2022-11-19T01:41:02.812Z,31.95
2022-11-19T01:43:50.183Z,29.70
2022-11-19T01:46:20.347Z,37.97
2022-11-19T01:48:56.059Z,31.45
2022-11-19T01:51:37.706Z,30.98
2022-11-19T01:54:12.694Z,27.50
2022-11-19T01:56:40.249Z,30.45
2022-11-19T01:59:14.063Z,33.35
2022-11-19T02:01:44.203Z,32.55
2022-11-19T02:04:13.879Z,26.10
2022-11-19T02:06:42.319Z,31.27
2022-11-19T02:09:09.825Z,25.50
2022-11-19T02:11:43.624Z,30.55
2022-11-19T02:14:24.619Z,34.20
2022-11-19T02:16:55.083Z,28.95
2022-11-19T02:19:54.579Z,36.08
2022-11-19T02:22:52.625Z,38.22
2022-11-19T02:25:35.222Z,30.05
2022-11-19T02:28:26.701Z,30.45
2022-11-19T02:31:04.751Z,36.60
2022-11-19T02:33:48.224Z,41.03
2022-11-19T02:36:24.570Z,37.88
2022-11-19T02:39:33.825Z,28.13
2022-11-19T02:42:26.503Z,32.55
2022-11-19T02:45:20.568Z,34.08
2022-11-19T02:48:01.364Z,37.75
2022-11-19T02:50:34.633Z,25.20
2022-11-19T02:53:04.337Z,31.17
2022-11-19T02:55:32.120Z,27.38
2022-11-19T02:58:08.713Z,22.85
2022-11-19T03:01:01.618Z,29.40
2022-11-19T03:03:48.675Z,29.25
2022-11-19T03:06:20.489Z,28.67
2022-11-19T03:08:48.332Z,27.17
2022-11-19T03:11:26.170Z,39.45
2022-11-19T03:14:24.547Z,26.55
2022-11-19T03:17:08.946Z,28.35
2022-11-19T03:19:48.592Z,36.67
2022-11-19T03:22:21.238Z,26.00
2022-11-19T03:25:12.335Z,35.55
2022-11-19T03:27:48.754Z,28.02
2022-11-19T03:30:18.511Z,25.25
2022-11-19T03:32:56.991Z,23.75
2022-11-19T03:35:31.809Z,24.98
2022-11-19T03:38:03.903Z,29.67
2022-11-19T03:40:33.731Z,35.03
2022-11-19T03:43:05.909Z,29.75
2022-11-19T03:45:39.247Z,29.52
2022-11-19T03:48:07.666Z,37.38
2022-11-19T03:50:46.907Z,26.48
2022-11-19T03:53:15.004Z,40.60
2022-11-19T03:55:51.546Z,29.33
2022-11-19T03:58:19.089Z,26.73
2022-11-19T04:00:46.564Z,32.88
2022-11-19T04:03:14.056Z,30.20
2022-11-19T04:05:41.472Z,27.33
2022-11-19T04:08:09.034Z,26.15
2022-11-19T04:10:36.423Z,23.30
2022-11-19T04:13:04.325Z,32.08
2022-11-19T04:15:31.825Z,28.83
2022-11-19T04:17:59.318Z,25.33
2022-11-19T04:20:26.847Z,26.83
2022-11-19T04:22:54.297Z,39.38
2022-11-19T04:25:21.706Z,29.45
2022-11-19T04:27:51.975Z,31.45
2022-11-19T04:30:19.607Z,26.38
2022-11-19T04:32:47.051Z,22.88
2022-11-19T04:35:14.650Z,22.55
2022-11-19T04:37:42.055Z,22.48
2022-11-19T04:40:10.048Z,32.00
2022-11-19T04:42:37.461Z,21.15
2022-11-19T04:45:05.239Z,33.40
2022-11-19T04:47:32.666Z,23.58
2022-11-19T04:50:00.138Z,23.38
2022-11-19T04:52:27.555Z,24.67
2022-11-19T04:54:55.075Z,26.25
2022-11-19T04:57:22.517Z,21.80
2022-11-19T04:59:49.994Z,16.83
2022-11-19T05:02:17.367Z,15.57
2022-11-19T05:04:44.931Z,21.85
2022-11-19T05:07:12.430Z,22.08
2022-11-19T05:09:39.900Z,19.50
2022-11-19T05:12:07.590Z,29.33
2022-11-19T05:14:38.379Z,27.15
2022-11-19T05:17:06.092Z,32.65
2022-11-19T05:19:33.578Z,21.55
2022-11-19T05:22:01.112Z,26.80
2022-11-19T05:24:28.508Z,23.90
2022-11-19T05:26:55.976Z,30.55
2022-11-19T05:29:23.419Z,26.35
2022-11-19T05:31:50.905Z,30.10
2022-11-19T05:34:18.315Z,22.92
2022-11-19T05:36:45.770Z,25.98
2022-11-19T05:39:16.252Z,24.80
2022-11-19T05:41:48.957Z,23.52
2022-11-19T05:44:16.654Z,18.17
2022-11-19T05:46:44.327Z,21.13
2022-11-19T05:49:11.915Z,28.73
2022-11-19T05:51:39.428Z,28.33
2022-11-19T05:54:06.877Z,29.05
2022-11-19T05:56:34.386Z,27.20
2022-11-19T05:59:01.797Z,23.08
2022-11-19T06:01:30.043Z,31.15
2022-11-19T06:03:57.533Z,21.75
2022-11-19T06:06:25.592Z,23.35
2022-11-19T06:08:53.078Z,19.80
2022-11-19T06:11:39.166Z,26.40
2022-11-19T06:14:06.625Z,25.08
2022-11-19T06:16:34.072Z,32.85
2022-11-19T06:19:01.562Z,33.42
2022-11-19T06:21:28.948Z,25.98
2022-11-19T06:23:56.489Z,25.33
2022-11-19T06:26:28.714Z,33.33
2022-11-19T06:28:56.740Z,21.42
2022-11-19T06:31:24.554Z,22.55
2022-11-19T06:33:53.634Z,23.73
2022-11-19T06:36:23.162Z,15.57
2022-11-19T06:38:51.960Z,32.35
2022-11-19T06:41:20.083Z,25.50
2022-11-19T06:43:47.638Z,30.95
2022-11-19T06:46:15.244Z,33.85
2022-11-19T06:48:42.777Z,33.00
2022-11-19T06:51:10.238Z,36.60
2022-11-19T06:53:37.834Z,28.92
2022-11-19T06:56:06.967Z,24.80
2022-11-19T06:58:34.760Z,21.50
2022-11-19T07:01:02.218Z,30.80
2022-11-19T07:03:29.966Z,26.33
2022-11-19T07:06:03.317Z,18.42
2022-11-19T07:08:34.439Z,36.95
2022-11-19T07:11:22.979Z,27.65
2022-11-19T07:14:00.495Z,24.65
2022-11-19T07:16:31.613Z,22.48
2022-11-19T07:19:00.575Z,27.60
2022-11-19T07:21:28.999Z,32.03
2022-11-19T07:23:57.539Z,23.27
2022-11-19T07:26:25.332Z,30.08
2022-11-19T07:28:53.174Z,22.13
2022-11-19T07:31:20.765Z,26.13
2022-11-19T07:33:48.396Z,17.90
2022-11-19T07:36:18.618Z,19.75
2022-11-19T07:38:47.078Z,27.10
2022-11-19T07:41:33.124Z,26.35
2022-11-19T07:44:00.672Z,30.80
2022-11-19T07:46:28.107Z,27.08
2022-11-19T07:48:57.095Z,21.95
2022-11-19T07:51:25.206Z,20.52
2022-11-19T07:53:53.289Z,22.05
2022-11-19T07:56:20.944Z,24.45
2022-11-19T07:58:48.510Z,22.73
2022-11-19T08:01:20.756Z,27.02
2022-11-19T08:03:53.424Z,29.83
2022-11-19T08:06:26.294Z,22.23
2022-11-19T08:08:55.877Z,15.98
2022-11-19T08:11:23.485Z,22.20
2022-11-19T08:13:51.477Z,24.15
2022-11-19T08:16:37.553Z,27.77
2022-11-19T08:19:10.737Z,20.23
2022-11-19T08:21:41.530Z,15.77
2022-11-19T08:24:10.159Z,22.65
2022-11-19T08:26:38.469Z,23.95
2022-11-19T08:29:09.429Z,25.23
2022-11-19T08:31:41.025Z,22.42
2022-11-19T08:34:08.508Z,24.00
2022-11-19T08:36:36.031Z,19.75
2022-11-19T08:39:04.208Z,20.92
2022-11-19T08:41:50.386Z,24.35
2022-11-19T08:44:18.491Z,19.42
2022-11-19T08:46:46.059Z,23.70
2022-11-19T08:49:13.870Z,23.80
2022-11-19T08:51:41.301Z,21.73
2022-11-19T08:54:09.008Z,31.77
2022-11-19T08:56:36.523Z,15.00
2022-11-19T08:59:04.215Z,17.92
2022-11-19T09:01:31.728Z,18.42
2022-11-19T09:03:59.489Z,28.60
2022-11-19T09:06:27.208Z,23.88
2022-11-19T09:08:54.730Z,22.92
2022-11-19T09:11:22.677Z,28.08
2022-11-19T09:13:50.395Z,16.63
2022-11-19T09:16:17.944Z,21.70
2022-11-19T09:18:45.479Z,18.33
2022-11-19T09:21:13.092Z,23.88
2022-11-19T09:23:42.531Z,26.92
2022-11-19T09:26:18.352Z,19.05
2022-11-19T09:28:46.267Z,22.38
2022-11-19T09:31:16.887Z,22.00
2022-11-19T09:33:47.595Z,21.63
2022-11-19T09:36:15.961Z,18.98
2022-11-19T09:38:43.452Z,22.10
2022-11-19T09:41:32.446Z,22.42
2022-11-19T09:44:11.659Z,18.55
2022-11-19T09:47:04.988Z,20.77
2022-11-19T09:50:02.514Z,21.23
2022-11-19T09:52:33.915Z,24.83
2022-11-19T09:55:02.587Z,23.85
2022-11-19T09:57:53.979Z,32.97
2022-11-19T10:00:24.660Z,23.15
2022-11-19T10:02:53.628Z,22.88
2022-11-19T10:05:43.659Z,22.15
2022-11-19T10:08:37.059Z,19.00
2022-11-19T10:11:30.009Z,24.27
2022-11-19T10:14:19.511Z,18.02
2022-11-19T10:17:13.330Z,21.02
2022-11-19T10:20:04.010Z,27.83
2022-11-19T10:22:57.096Z,23.38
2022-11-19T10:25:32.292Z,19.27
2022-11-19T10:28:20.953Z,17.75
2022-11-19T10:30:55.950Z,15.60
2022-11-19T10:33:37.332Z,20.05
2022-11-19T10:36:08.921Z,15.70
2022-11-19T10:38:58.089Z,21.88
2022-11-19T10:41:37.799Z,24.00
2022-11-19T10:44:40.611Z,20.13
2022-11-19T10:47:20.382Z,21.83
2022-11-19T10:49:53.960Z,18.63
2022-11-19T10:52:37.978Z,17.42
2022-11-19T10:55:23.270Z,21.75
2022-11-19T10:58:05.699Z,17.58
2022-11-19T11:00:34.879Z,20.55
2022-11-19T11:03:05.242Z,18.15
2022-11-19T11:05:55.716Z,19.40
2022-11-19T11:08:23.748Z,20.00
2022-11-19T11:10:52.161Z,17.90
2022-11-19T11:13:44.695Z,15.13
2022-11-19T11:16:15.965Z,22.27
2022-11-19T11:18:44.152Z,17.50
2022-11-19T11:21:30.572Z,17.40
2022-11-19T11:26:29.295Z,19.05
2022-11-19T11:29:17.433Z,16.90
2022-11-19T11:31:47.289Z,21.33
2022-11-19T11:34:38.376Z,16.73
2022-11-19T11:37:08.686Z,19.45
2022-11-19T11:39:40.904Z,16.48
2022-11-19T11:42:17.664Z,17.23
2022-11-19T11:44:57.264Z,18.23
2022-11-19T11:47:50.940Z,18.52
2022-11-19T11:50:23.630Z,19.65
2022-11-19T11:52:53.233Z,11.77
2022-11-19T11:55:23.889Z,19.40
2022-11-19T11:57:51.365Z,19.30
2022-11-19T12:00:37.062Z,16.92
2022-11-19T12:03:18.777Z,20.20
2022-11-19T12:06:07.632Z,25.83
2022-11-19T12:08:56.407Z,21.50
2022-11-19T12:11:54.228Z,20.30
2022-11-19T12:14:32.495Z,19.55
2022-11-19T12:17:05.093Z,25.65
2022-11-19T12:19:42.628Z,19.25
2022-11-19T12:22:43.019Z,17.67
2022-11-19T12:25:25.804Z,20.80
2022-11-19T12:28:05.487Z,24.67
2022-11-19T12:30:49.492Z,21.02
2022-11-19T12:33:32.000Z,20.67
2022-11-19T12:36:17.127Z,21.60
2022-11-19T12:39:18.999Z,22.27
2022-11-19T12:42:03.594Z,19.30
2022-11-19T12:44:43.071Z,17.02
2022-11-19T12:47:23.226Z,17.40
2022-11-19T12:50:15.431Z,16.35
2022-11-19T12:53:01.457Z,21.92
2022-11-19T12:55:53.285Z,19.30
2022-11-19T12:58:36.386Z,18.00
2022-11-19T13:01:15.468Z,14.05
2022-11-19T13:04:03.641Z,14.88
2022-11-19T13:06:43.285Z,19.77
2022-11-19T13:09:43.880Z,23.70
2022-11-19T13:12:25.117Z,25.08
2022-11-19T13:15:03.179Z,17.60
2022-11-19T13:17:41.152Z,18.38
2022-11-19T13:20:18.326Z,18.73
2022-11-19T13:22:47.648Z,21.27
2022-11-19T13:25:24.378Z,17.60
2022-11-19T13:27:54.647Z,19.17
2022-11-19T13:30:26.923Z,23.77
2022-11-19T13:32:59.278Z,19.05
2022-11-19T13:35:35.626Z,21.80
2022-11-19T13:38:45.092Z,19.85
2022-11-19T13:41:28.675Z,18.92
2022-11-19T13:44:15.994Z,21.17
2022-11-19T13:46:59.307Z,17.35
2022-11-19T13:49:51.254Z,18.05
2022-11-19T13:52:34.481Z,21.40
2022-11-19T13:55:02.469Z,22.42
2022-11-19T13:57:34.295Z,20.58
2022-11-19T14:00:06.289Z,20.92
2022-11-19T14:03:08.555Z,21.75
2022-11-19T14:05:56.620Z,17.42
2022-11-19T14:08:43.189Z,18.42
2022-11-19T14:11:28.527Z,24.88
2022-11-19T14:14:33.859Z,16.52
2022-11-19T14:17:34.553Z,21.30
2022-11-19T14:20:20.727Z,18.52
2022-11-19T14:23:15.911Z,18.60
2022-11-19T14:26:05.479Z,21.75
2022-11-19T14:28:49.013Z,11.93
2022-11-19T14:31:18.244Z,20.33
2022-11-19T14:33:48.714Z,13.52
2022-11-19T14:36:42.193Z,16.70
2022-11-19T14:39:23.602Z,18.85
2022-11-19T14:42:12.767Z,22.50
2022-11-19T14:44:40.466Z,22.35
2022-11-19T14:47:22.793Z,18.52
2022-11-19T14:49:51.405Z,18.92
2022-11-19T14:53:01.105Z,20.10
2022-11-19T14:55:34.581Z,20.13
2022-11-19T14:58:16.544Z,29.02
2022-11-19T15:00:44.346Z,25.63
2022-11-19T15:03:23.860Z,14.70
2022-11-19T15:05:51.891Z,17.95
2022-11-19T15:08:19.306Z,18.80
2022-11-19T15:11:23.544Z,17.35
2022-11-19T15:14:28.883Z,16.08
2022-11-19T15:17:04.394Z,17.23
2022-11-19T15:19:43.929Z,21.13
2022-11-19T15:22:31.521Z,22.60
2022-11-19T15:25:02.194Z,22.88
2022-11-19T15:27:49.093Z,25.02
2022-11-19T15:30:19.776Z,22.77
2022-11-19T15:33:16.384Z,15.23
2022-11-19T15:36:14.638Z,22.45
2022-11-19T15:39:10.162Z,19.73
2022-11-19T15:41:42.670Z,14.55
2022-11-19T15:44:17.253Z,20.02
2022-11-19T15:46:53.419Z,23.48
2022-11-19T15:49:24.526Z,18.05
2022-11-19T15:52:06.426Z,23.00
2022-11-19T15:54:36.152Z,17.73
2022-11-19T15:57:26.238Z,18.77
2022-11-19T16:00:01.382Z,17.77
2022-11-19T16:02:42.282Z,16.95
2022-11-19T16:05:26.530Z,13.10
2022-11-19T16:07:56.394Z,15.80
2022-11-19T16:10:41.296Z,19.67
2022-11-19T16:13:42.420Z,21.00
2022-11-19T16:16:54.571Z,17.45
2022-11-19T16:19:22.361Z,15.05
2022-11-19T16:22:10.445Z,20.45
2022-11-19T16:24:56.275Z,15.10
2022-11-19T16:27:25.252Z,22.00
2022-11-19T16:29:52.909Z,18.23
2022-11-19T16:32:23.452Z,16.50
2022-11-19T16:34:50.979Z,19.77
2022-11-19T16:37:21.733Z,16.00
2022-11-19T16:39:51.943Z,15.45
2022-11-19T16:42:28.314Z,22.23
2022-11-19T16:45:04.883Z,17.58
2022-11-19T16:47:53.592Z,20.98
2022-11-19T16:50:42.445Z,20.05
2022-11-19T16:53:11.354Z,20.77
2022-11-19T16:55:46.002Z,18.02
2022-11-19T16:58:19.375Z,22.25
2022-11-19T17:00:53.215Z,14.23
2022-11-19T17:03:29.190Z,15.73
2022-11-19T17:05:58.236Z,15.98
2022-11-19T17:08:31.786Z,16.13
2022-11-19T17:11:40.537Z,21.75
2022-11-19T17:14:14.102Z,15.82
2022-11-19T17:16:46.174Z,15.73
2022-11-19T17:19:34.607Z,13.35
2022-11-19T17:22:26.378Z,18.50
2022-11-19T17:24:53.900Z,18.52
2022-11-19T17:27:41.614Z,21.10
2022-11-19T17:30:19.701Z,18.17
2022-11-19T17:32:49.330Z,23.98
2022-11-19T17:35:34.507Z,20.05
2022-11-19T17:38:24.092Z,21.77
2022-11-19T17:41:00.115Z,13.55
2022-11-19T17:46:22.493Z,18.95
2022-11-19T17:48:50.786Z,18.80
2022-11-19T17:51:21.330Z,16.85
2022-11-19T17:53:51.310Z,18.85
2022-11-19T17:56:21.517Z,18.10
2022-11-19T17:58:48.976Z,19.25
2022-11-19T18:01:17.304Z,20.77
2022-11-19T18:03:45.434Z,18.63
2022-11-19T18:06:14.984Z,21.88
2022-11-19T18:08:42.801Z,13.10
2022-11-19T18:11:19.367Z,16.55
2022-11-19T18:13:49.893Z,20.27
2022-11-19T18:16:23.194Z,15.55
2022-11-19T18:18:51.179Z,19.02
2022-11-19T18:21:21.149Z,15.85
2022-11-19T18:23:50.785Z,17.27
2022-11-19T18:26:22.275Z,22.15
2022-11-19T18:28:50.037Z,13.75
2022-11-19T18:31:26.708Z,13.60
2022-11-19T18:33:56.045Z,16.33
2022-11-19T18:36:25.181Z,20.13
2022-11-19T18:38:54.866Z,20.88
2022-11-19T18:41:22.342Z,15.02
2022-11-19T18:44:08.398Z,19.08
2022-11-19T18:46:36.181Z,21.55
2022-11-19T18:49:04.429Z,19.77
2022-11-19T18:51:32.463Z,15.45
2022-11-19T18:54:00.052Z,19.83
2022-11-19T18:56:27.550Z,20.90
2022-11-19T18:58:56.420Z,17.63
2022-11-19T19:01:25.591Z,14.73
2022-11-19T19:03:53.521Z,17.63
2022-11-19T19:06:23.170Z,16.70
2022-11-19T19:08:50.583Z,19.35
2022-11-19T19:11:36.591Z,20.48
2022-11-19T19:14:04.483Z,10.90
2022-11-19T19:16:32.202Z,15.60
2022-11-19T19:19:00.494Z,12.18
2022-11-19T19:21:28.775Z,18.60
2022-11-19T19:23:56.521Z,20.85
2022-11-19T19:26:24.506Z,25.20
2022-11-19T19:28:54.421Z,16.75
2022-11-19T19:31:23.354Z,17.33
2022-11-19T19:33:51.783Z,25.20
2022-11-19T19:36:21.791Z,24.52
2022-11-19T19:38:49.383Z,17.52
2022-11-19T19:41:22.136Z,20.75
2022-11-19T19:43:50.244Z,16.70
2022-11-19T19:46:20.150Z,22.35
2022-11-19T19:48:55.282Z,13.68
2022-11-19T19:51:25.925Z,20.73
2022-11-19T19:53:54.511Z,17.35
2022-11-19T19:56:25.131Z,16.25
2022-11-19T19:58:53.170Z,20.63
2022-11-19T20:01:32.523Z,17.35
2022-11-19T20:04:05.668Z,20.77
2022-11-19T20:06:34.486Z,17.52
2022-11-19T20:09:08.209Z,22.17
2022-11-19T20:11:49.273Z,19.10
2022-11-19T20:14:17.021Z,21.02
2022-11-19T20:16:44.585Z,15.35
2022-11-19T20:19:14.661Z,17.30
2022-11-19T20:21:42.747Z,12.80
2022-11-19T20:24:13.339Z,18.92
2022-11-19T20:26:42.472Z,20.80
2022-11-19T20:29:14.183Z,16.95
2022-11-19T20:31:46.194Z,17.45
2022-11-19T20:34:14.319Z,19.10
2022-11-19T20:36:41.747Z,23.45
2022-11-19T20:39:09.244Z,12.40
2022-11-19T20:41:55.002Z,24.00
2022-11-19T20:44:25.065Z,18.98
2022-11-19T20:47:01.005Z,15.82
2022-11-19T20:51:57.058Z,18.52
2022-11-19T20:54:26.112Z,23.40
2022-11-19T20:56:55.732Z,21.25
2022-11-19T20:59:25.814Z,16.55
2022-11-19T21:01:54.737Z,21.90
2022-11-19T21:04:23.629Z,27.02
2022-11-19T21:06:51.327Z,16.60
2022-11-19T21:09:19.921Z,19.80
2022-11-19T21:11:48.104Z,21.17
2022-11-19T21:14:15.655Z,14.63
2022-11-19T21:16:43.281Z,19.92
2022-11-19T21:19:11.666Z,13.73
2022-11-19T21:21:39.203Z,23.98
2022-11-19T21:24:07.238Z,17.08
2022-11-19T21:26:35.398Z,20.75
2022-11-19T21:29:02.877Z,16.58
2022-11-19T21:31:39.687Z,18.13
2022-11-19T21:34:12.389Z,21.08
2022-11-19T21:36:41.888Z,21.58
2022-11-19T21:39:10.557Z,24.95
2022-11-19T21:41:37.995Z,24.25
2022-11-19T21:44:05.997Z,20.88
2022-11-19T21:46:33.904Z,22.73
2022-11-19T21:49:02.049Z,19.00
2022-11-19T21:51:29.679Z,20.33
2022-11-19T21:53:58.051Z,29.65
2022-11-19T21:56:26.875Z,28.73
2022-11-19T21:58:54.396Z,24.80
2022-11-19T22:01:21.893Z,24.60
2022-11-19T22:03:49.479Z,19.55
2022-11-19T22:06:17.025Z,24.80
2022-11-19T22:08:44.690Z,25.42
2022-11-19T22:11:31.374Z,22.58
2022-11-19T22:14:00.853Z,21.40
2022-11-19T22:16:28.449Z,19.05
2022-11-19T22:18:55.935Z,29.52
2022-11-19T22:21:23.587Z,32.25
2022-11-19T22:23:52.728Z,21.50
2022-11-19T22:26:20.279Z,22.35
2022-11-19T22:28:47.736Z,24.63
2022-11-19T22:31:15.775Z,24.58
2022-11-19T22:33:43.436Z,34.17
2022-11-19T22:36:11.451Z,23.73
2022-11-19T22:38:39.450Z,17.63
2022-11-19T22:41:08.627Z,19.77
2022-11-19T22:43:37.058Z,23.05
2022-11-19T22:46:05.364Z,20.00
2022-11-19T22:48:33.482Z,21.85
2022-11-19T22:51:09.508Z,21.23
2022-11-19T22:53:37.517Z,20.38
2022-11-19T22:56:06.776Z,31.30
2022-11-19T22:58:35.683Z,21.08
2022-11-19T23:01:04.596Z,22.17
2022-11-19T23:03:32.189Z,20.17
2022-11-19T23:05:59.669Z,23.10
2022-11-19T23:08:27.260Z,23.20
2022-11-19T23:11:02.591Z,25.08
2022-11-19T23:13:32.285Z,20.27
2022-11-19T23:16:08.801Z,20.48
2022-11-19T23:18:41.853Z,18.85
2022-11-19T23:21:12.528Z,18.13
2022-11-19T23:23:40.335Z,17.38
2022-11-19T23:26:09.441Z,22.55
2022-11-19T23:28:37.957Z,14.98
2022-11-19T23:31:16.176Z,19.52
2022-11-19T23:33:44.597Z,22.52
2022-11-19T23:36:15.417Z,12.10
2022-11-19T23:38:43.560Z,18.27
2022-11-19T23:41:13.485Z,12.60
2022-11-19T23:43:41.633Z,23.50
2022-11-19T23:46:16.238Z,14.27
2022-11-19T23:48:45.911Z,24.73
2022-11-19T23:51:27.680Z,21.90
2022-11-19T23:53:55.840Z,23.80
2022-11-19T23:56:24.492Z,15.95
2022-11-19T23:58:52.589Z,16.05
